sensor_id;sensor_type;location;lat;lon;timestamp;P1;durP1;ratioP1;P2;durP2;ratioP2
30707;SDS011;17458;48.958;8.284;2022-07-30T00:02:13;15.25;;;9.38;;
30707;SDS011;17458;48.958;8.284;2022-07-30T00:04:59;20.30;;;12.77;;
30707;SDS011;17458;48.958;8.284;2022-07-30T00:07:43;12.38;;;6.95;;
30707;SDS011;17458;48.958;8.284;2022-07-30T00:10:27;8.35;;;4.20;;
30707;SDS011;17458;48.958;8.284;2022-07-30T00:13:11;14.98;;;3.85;;
30707;SDS011;17458;48.958;8.284;2022-07-30T00:15:55;4.50;;;2.55;;
30707;SDS011;17458;48.958;8.284;2022-07-30T00:18:39;4.60;;;3.05;;
30707;SDS011;17458;48.958;8.284;2022-07-30T00:21:23;7.82;;;2.90;;
30707;SDS011;17458;48.958;8.284;2022-07-30T00:24:07;8.00;;;3.00;;
30707;SDS011;17458;48.958;8.284;2022-07-30T00:26:51;3.38;;;3.08;;
30707;SDS011;17458;48.958;8.284;2022-07-30T00:29:35;6.25;;;3.25;;
30707;SDS011;17458;48.958;8.284;2022-07-30T00:32:19;10.93;;;3.10;;
30707;SDS011;17458;48.958;8.284;2022-07-30T00:35:03;7.13;;;3.55;;
30707;SDS011;17458;48.958;8.284;2022-07-30T00:37:47;4.75;;;3.05;;
30707;SDS011;17458;48.958;8.284;2022-07-30T00:40:31;6.28;;;3.13;;
30707;SDS011;17458;48.958;8.284;2022-07-30T00:43:15;12.32;;;3.35;;
30707;SDS011;17458;48.958;8.284;2022-07-30T00:46:00;6.82;;;4.03;;
30707;SDS011;17458;48.958;8.284;2022-07-30T00:48:44;7.03;;;3.55;;
30707;SDS011;17458;48.958;8.284;2022-07-30T00:51:28;11.88;;;3.47;;
30707;SDS011;17458;48.958;8.284;2022-07-30T00:54:12;8.48;;;3.47;;
30707;SDS011;17458;48.958;8.284;2022-07-30T00:56:58;5.15;;;3.15;;
30707;SDS011;17458;48.958;8.284;2022-07-30T00:59:42;10.70;;;3.72;;
30707;SDS011;17458;48.958;8.284;2022-07-30T01:02:26;7.18;;;2.97;;
30707;SDS011;17458;48.958;8.284;2022-07-30T01:05:10;12.73;;;3.53;;
30707;SDS011;17458;48.958;8.284;2022-07-30T01:07:54;6.70;;;3.08;;
30707;SDS011;17458;48.958;8.284;2022-07-30T01:10:38;9.80;;;4.30;;
30707;SDS011;17458;48.958;8.284;2022-07-30T01:13:22;6.00;;;3.60;;
30707;SDS011;17458;48.958;8.284;2022-07-30T01:16:07;10.70;;;3.97;;
30707;SDS011;17458;48.958;8.284;2022-07-30T01:18:52;6.15;;;3.53;;
30707;SDS011;17458;48.958;8.284;2022-07-30T01:22:42;9.02;;;3.40;;
30707;SDS011;17458;48.958;8.284;2022-07-30T01:28:11;7.75;;;4.43;;
30707;SDS011;17458;48.958;8.284;2022-07-30T01:30:59;9.82;;;3.33;;
30707;SDS011;17458;48.958;8.284;2022-07-30T01:33:46;14.48;;;4.07;;
30707;SDS011;17458;48.958;8.284;2022-07-30T01:36:32;17.00;;;4.03;;
30707;SDS011;17458;48.958;8.284;2022-07-30T01:39:16;10.32;;;4.05;;
30707;SDS011;17458;48.958;8.284;2022-07-30T01:42:02;12.02;;;4.00;;
30707;SDS011;17458;48.958;8.284;2022-07-30T01:44:49;3.90;;;3.50;;
30707;SDS011;17458;48.958;8.284;2022-07-30T01:47:35;5.43;;;4.15;;
30707;SDS011;17458;48.958;8.284;2022-07-30T01:50:22;13.40;;;4.10;;
30707;SDS011;17458;48.958;8.284;2022-07-30T01:53:07;7.13;;;3.85;;
30707;SDS011;17458;48.958;8.284;2022-07-30T01:55:53;8.48;;;4.32;;
30707;SDS011;17458;48.958;8.284;2022-07-30T01:58:38;10.38;;;3.78;;
30707;SDS011;17458;48.958;8.284;2022-07-30T02:01:36;6.13;;;3.40;;
30707;SDS011;17458;48.958;8.284;2022-07-30T02:04:20;6.13;;;4.20;;
30707;SDS011;17458;48.958;8.284;2022-07-30T02:07:10;7.95;;;3.95;;
30707;SDS011;17458;48.958;8.284;2022-07-30T02:10:04;8.85;;;3.63;;
30707;SDS011;17458;48.958;8.284;2022-07-30T02:12:57;4.60;;;3.70;;
30707;SDS011;17458;48.958;8.284;2022-07-30T02:21:46;3.95;;;3.58;;
30707;SDS011;17458;48.958;8.284;2022-07-30T02:24:36;8.55;;;4.00;;
30707;SDS011;17458;48.958;8.284;2022-07-30T02:30:14;15.68;;;4.75;;
30707;SDS011;17458;48.958;8.284;2022-07-30T02:33:01;12.57;;;4.40;;
30707;SDS011;17458;48.958;8.284;2022-07-30T02:35:48;8.80;;;3.88;;
30707;SDS011;17458;48.958;8.284;2022-07-30T02:38:35;9.05;;;4.15;;
30707;SDS011;17458;48.958;8.284;2022-07-30T02:41:22;5.63;;;4.32;;
30707;SDS011;17458;48.958;8.284;2022-07-30T02:44:08;4.20;;;3.55;;
30707;SDS011;17458;48.958;8.284;2022-07-30T02:46:55;8.95;;;4.05;;
30707;SDS011;17458;48.958;8.284;2022-07-30T02:49:47;7.40;;;4.07;;
30707;SDS011;17458;48.958;8.284;2022-07-30T02:52:33;6.55;;;4.13;;
30707;SDS011;17458;48.958;8.284;2022-07-30T02:55:19;8.02;;;4.20;;
30707;SDS011;17458;48.958;8.284;2022-07-30T02:58:04;4.53;;;3.63;;
30707;SDS011;17458;48.958;8.284;2022-07-30T03:00:51;5.03;;;3.75;;
30707;SDS011;17458;48.958;8.284;2022-07-30T03:03:38;4.95;;;3.90;;
30707;SDS011;17458;48.958;8.284;2022-07-30T03:06:23;8.65;;;4.30;;
30707;SDS011;17458;48.958;8.284;2022-07-30T03:09:10;4.95;;;4.20;;
30707;SDS011;17458;48.958;8.284;2022-07-30T03:11:55;7.22;;;3.78;;
30707;SDS011;17458;48.958;8.284;2022-07-30T03:14:40;5.13;;;4.15;;
30707;SDS011;17458;48.958;8.284;2022-07-30T03:17:25;10.00;;;4.57;;
30707;SDS011;17458;48.958;8.284;2022-07-30T03:20:12;5.72;;;4.57;;
30707;SDS011;17458;48.958;8.284;2022-07-30T03:23:00;6.05;;;3.58;;
30707;SDS011;17458;48.958;8.284;2022-07-30T03:25:49;6.93;;;4.55;;
30707;SDS011;17458;48.958;8.284;2022-07-30T03:28:37;8.63;;;4.70;;
30707;SDS011;17458;48.958;8.284;2022-07-30T03:31:23;7.32;;;4.80;;
30707;SDS011;17458;48.958;8.284;2022-07-30T03:34:08;6.45;;;4.57;;
30707;SDS011;17458;48.958;8.284;2022-07-30T03:36:53;4.90;;;3.90;;
30707;SDS011;17458;48.958;8.284;2022-07-30T03:39:38;4.40;;;3.92;;
30707;SDS011;17458;48.958;8.284;2022-07-30T03:42:24;4.82;;;4.03;;
30707;SDS011;17458;48.958;8.284;2022-07-30T03:45:10;7.35;;;4.47;;
30707;SDS011;17458;48.958;8.284;2022-07-30T03:47:58;8.05;;;4.45;;
30707;SDS011;17458;48.958;8.284;2022-07-30T03:50:43;6.32;;;4.45;;
30707;SDS011;17458;48.958;8.284;2022-07-30T03:53:28;11.90;;;4.43;;
30707;SDS011;17458;48.958;8.284;2022-07-30T03:56:31;7.22;;;4.18;;
30707;SDS011;17458;48.958;8.284;2022-07-30T03:59:22;7.38;;;4.75;;
30707;SDS011;17458;48.958;8.284;2022-07-30T04:02:06;7.82;;;4.93;;
30707;SDS011;17458;48.958;8.284;2022-07-30T04:05:14;10.82;;;5.45;;
30707;SDS011;17458;48.958;8.284;2022-07-30T04:07:58;6.22;;;4.82;;
30707;SDS011;17458;48.958;8.284;2022-07-30T04:10:43;9.95;;;4.63;;
30707;SDS011;17458;48.958;8.284;2022-07-30T04:13:46;10.50;;;4.78;;
30707;SDS011;17458;48.958;8.284;2022-07-30T04:19:19;8.82;;;4.40;;
30707;SDS011;17458;48.958;8.284;2022-07-30T04:22:05;7.75;;;4.80;;
30707;SDS011;17458;48.958;8.284;2022-07-30T04:24:53;7.88;;;4.78;;
30707;SDS011;17458;48.958;8.284;2022-07-30T04:27:39;6.03;;;4.47;;
30707;SDS011;17458;48.958;8.284;2022-07-30T04:30:23;9.23;;;4.32;;
30707;SDS011;17458;48.958;8.284;2022-07-30T04:33:08;7.43;;;5.07;;
30707;SDS011;17458;48.958;8.284;2022-07-30T04:36:08;7.00;;;4.70;;
30707;SDS011;17458;48.958;8.284;2022-07-30T04:38:55;5.25;;;4.30;;
30707;SDS011;17458;48.958;8.284;2022-07-30T04:41:39;14.40;;;4.93;;
30707;SDS011;17458;48.958;8.284;2022-07-30T04:44:42;5.03;;;4.10;;
30707;SDS011;17458;48.958;8.284;2022-07-30T04:47:47;6.13;;;4.65;;
30707;SDS011;17458;48.958;8.284;2022-07-30T04:50:48;13.88;;;5.15;;
30707;SDS011;17458;48.958;8.284;2022-07-30T04:53:38;4.53;;;4.13;;
30707;SDS011;17458;48.958;8.284;2022-07-30T04:56:25;8.55;;;5.22;;
30707;SDS011;17458;48.958;8.284;2022-07-30T04:59:11;6.85;;;4.85;;
30707;SDS011;17458;48.958;8.284;2022-07-30T05:01:57;6.65;;;4.97;;
30707;SDS011;17458;48.958;8.284;2022-07-30T05:04:43;6.60;;;4.40;;
30707;SDS011;17458;48.958;8.284;2022-07-30T05:07:28;4.75;;;4.13;;
30707;SDS011;17458;48.958;8.284;2022-07-30T05:10:15;9.52;;;4.82;;
30707;SDS011;17458;48.958;8.284;2022-07-30T05:13:00;10.18;;;4.90;;
30707;SDS011;17458;48.958;8.284;2022-07-30T05:15:46;8.73;;;4.40;;
30707;SDS011;17458;48.958;8.284;2022-07-30T05:18:34;9.23;;;4.55;;
30707;SDS011;17458;48.958;8.284;2022-07-30T05:21:19;8.20;;;3.92;;
30707;SDS011;17458;48.958;8.284;2022-07-30T05:24:05;6.70;;;4.22;;
30707;SDS011;17458;48.958;8.284;2022-07-30T05:26:54;7.03;;;3.72;;
30707;SDS011;17458;48.958;8.284;2022-07-30T05:29:39;6.72;;;3.88;;
30707;SDS011;17458;48.958;8.284;2022-07-30T05:32:29;8.20;;;4.15;;
30707;SDS011;17458;48.958;8.284;2022-07-30T05:35:13;7.15;;;4.18;;
30707;SDS011;17458;48.958;8.284;2022-07-30T05:37:58;13.20;;;4.00;;
30707;SDS011;17458;48.958;8.284;2022-07-30T05:40:45;6.10;;;4.20;;
30707;SDS011;17458;48.958;8.284;2022-07-30T05:43:47;6.30;;;3.70;;
30707;SDS011;17458;48.958;8.284;2022-07-30T05:46:31;7.82;;;3.50;;
30707;SDS011;17458;48.958;8.284;2022-07-30T05:49:16;10.98;;;4.22;;
30707;SDS011;17458;48.958;8.284;2022-07-30T05:52:00;9.13;;;4.07;;
30707;SDS011;17458;48.958;8.284;2022-07-30T05:54:44;5.88;;;4.22;;
30707;SDS011;17458;48.958;8.284;2022-07-30T05:57:47;6.50;;;3.60;;
30707;SDS011;17458;48.958;8.284;2022-07-30T06:00:31;5.75;;;3.10;;
30707;SDS011;17458;48.958;8.284;2022-07-30T06:03:17;8.27;;;3.63;;
30707;SDS011;17458;48.958;8.284;2022-07-30T06:06:24;7.18;;;3.67;;
30707;SDS011;17458;48.958;8.284;2022-07-30T06:09:08;8.75;;;3.60;;
30707;SDS011;17458;48.958;8.284;2022-07-30T06:11:52;5.15;;;3.25;;
30707;SDS011;17458;48.958;8.284;2022-07-30T06:14:36;7.32;;;3.15;;
30707;SDS011;17458;48.958;8.284;2022-07-30T06:17:23;6.40;;;4.03;;
30707;SDS011;17458;48.958;8.284;2022-07-30T06:20:33;6.28;;;3.72;;
30707;SDS011;17458;48.958;8.284;2022-07-30T06:23:41;5.07;;;3.13;;
30707;SDS011;17458;48.958;8.284;2022-07-30T06:26:52;9.38;;;3.22;;
30707;SDS011;17458;48.958;8.284;2022-07-30T06:29:37;5.93;;;3.30;;
30707;SDS011;17458;48.958;8.284;2022-07-30T06:32:21;9.23;;;3.55;;
30707;SDS011;17458;48.958;8.284;2022-07-30T06:35:05;10.65;;;3.63;;
30707;SDS011;17458;48.958;8.284;2022-07-30T06:37:49;5.05;;;2.50;;
30707;SDS011;17458;48.958;8.284;2022-07-30T06:40:33;9.85;;;3.67;;
30707;SDS011;17458;48.958;8.284;2022-07-30T06:43:29;6.22;;;3.17;;
30707;SDS011;17458;48.958;8.284;2022-07-30T06:46:32;8.98;;;3.50;;
30707;SDS011;17458;48.958;8.284;2022-07-30T06:49:16;7.22;;;3.17;;
30707;SDS011;17458;48.958;8.284;2022-07-30T06:52:01;9.73;;;2.90;;
30707;SDS011;17458;48.958;8.284;2022-07-30T06:54:47;11.45;;;3.42;;
30707;SDS011;17458;48.958;8.284;2022-07-30T06:57:37;7.18;;;3.42;;
30707;SDS011;17458;48.958;8.284;2022-07-30T07:00:26;7.57;;;3.85;;
30707;SDS011;17458;48.958;8.284;2022-07-30T07:03:11;6.00;;;4.32;;
30707;SDS011;17458;48.958;8.284;2022-07-30T07:05:55;6.40;;;3.13;;
30707;SDS011;17458;48.958;8.284;2022-07-30T07:08:39;9.20;;;3.47;;
30707;SDS011;17458;48.958;8.284;2022-07-30T07:11:25;4.18;;;3.17;;
30707;SDS011;17458;48.958;8.284;2022-07-30T07:14:13;7.53;;;3.58;;
30707;SDS011;17458;48.958;8.284;2022-07-30T07:16:57;5.95;;;2.80;;
30707;SDS011;17458;48.958;8.284;2022-07-30T07:20:11;7.28;;;3.00;;
30707;SDS011;17458;48.958;8.284;2022-07-30T07:23:09;4.80;;;2.90;;
30707;SDS011;17458;48.958;8.284;2022-07-30T07:25:54;11.98;;;3.22;;
30707;SDS011;17458;48.958;8.284;2022-07-30T07:28:38;3.80;;;3.08;;
30707;SDS011;17458;48.958;8.284;2022-07-30T07:31:23;8.80;;;4.25;;
30707;SDS011;17458;48.958;8.284;2022-07-30T07:34:08;13.55;;;3.97;;
30707;SDS011;17458;48.958;8.284;2022-07-30T07:36:53;5.00;;;3.15;;
30707;SDS011;17458;48.958;8.284;2022-07-30T07:39:39;9.35;;;3.10;;
30707;SDS011;17458;48.958;8.284;2022-07-30T07:42:24;5.65;;;3.00;;
30707;SDS011;17458;48.958;8.284;2022-07-30T07:45:10;6.63;;;3.20;;
30707;SDS011;17458;48.958;8.284;2022-07-30T07:48:07;8.18;;;2.88;;
30707;SDS011;17458;48.958;8.284;2022-07-30T07:51:05;7.40;;;3.28;;
30707;SDS011;17458;48.958;8.284;2022-07-30T07:53:50;8.32;;;2.95;;
30707;SDS011;17458;48.958;8.284;2022-07-30T07:56:34;5.80;;;2.67;;
30707;SDS011;17458;48.958;8.284;2022-07-30T07:59:18;6.90;;;3.08;;
30707;SDS011;17458;48.958;8.284;2022-07-30T08:02:03;6.68;;;3.08;;
30707;SDS011;17458;48.958;8.284;2022-07-30T08:05:22;9.73;;;3.08;;
30707;SDS011;17458;48.958;8.284;2022-07-30T08:08:17;6.38;;;3.75;;
30707;SDS011;17458;48.958;8.284;2022-07-30T08:11:21;4.25;;;2.78;;
30707;SDS011;17458;48.958;8.284;2022-07-30T08:14:34;8.45;;;3.08;;
30707;SDS011;17458;48.958;8.284;2022-07-30T08:17:46;5.25;;;2.80;;
30707;SDS011;17458;48.958;8.284;2022-07-30T08:20:46;8.65;;;2.40;;
30707;SDS011;17458;48.958;8.284;2022-07-30T08:23:31;7.93;;;2.70;;
30707;SDS011;17458;48.958;8.284;2022-07-30T08:26:15;8.57;;;2.90;;
30707;SDS011;17458;48.958;8.284;2022-07-30T08:29:00;4.25;;;2.47;;
30707;SDS011;17458;48.958;8.284;2022-07-30T08:31:44;8.80;;;3.15;;
30707;SDS011;17458;48.958;8.284;2022-07-30T08:34:27;13.02;;;2.58;;
30707;SDS011;17458;48.958;8.284;2022-07-30T08:37:14;7.10;;;2.60;;
30707;SDS011;17458;48.958;8.284;2022-07-30T08:39:58;9.18;;;3.13;;
30707;SDS011;17458;48.958;8.284;2022-07-30T08:42:42;11.63;;;3.45;;
30707;SDS011;17458;48.958;8.284;2022-07-30T08:45:30;14.13;;;3.40;;
30707;SDS011;17458;48.958;8.284;2022-07-30T08:48:18;8.45;;;2.45;;
30707;SDS011;17458;48.958;8.284;2022-07-30T08:51:04;3.95;;;2.75;;
30707;SDS011;17458;48.958;8.284;2022-07-30T08:54:18;6.38;;;3.63;;
30707;SDS011;17458;48.958;8.284;2022-07-30T08:57:02;7.13;;;2.70;;
30707;SDS011;17458;48.958;8.284;2022-07-30T08:59:48;5.57;;;2.67;;
30707;SDS011;17458;48.958;8.284;2022-07-30T09:02:34;9.82;;;2.67;;
30707;SDS011;17458;48.958;8.284;2022-07-30T09:05:22;3.90;;;1.98;;
30707;SDS011;17458;48.958;8.284;2022-07-30T09:08:06;6.93;;;2.08;;
30707;SDS011;17458;48.958;8.284;2022-07-30T09:10:51;5.50;;;2.10;;
30707;SDS011;17458;48.958;8.284;2022-07-30T09:13:36;5.20;;;1.92;;
30707;SDS011;17458;48.958;8.284;2022-07-30T09:16:22;6.13;;;2.63;;
30707;SDS011;17458;48.958;8.284;2022-07-30T09:19:12;4.13;;;1.77;;
30707;SDS011;17458;48.958;8.284;2022-07-30T09:22:00;3.67;;;2.10;;
30707;SDS011;17458;48.958;8.284;2022-07-30T09:25:03;7.65;;;3.28;;
30707;SDS011;17458;48.958;8.284;2022-07-30T09:28:07;4.30;;;2.03;;
30707;SDS011;17458;48.958;8.284;2022-07-30T09:31:27;3.72;;;1.70;;
30707;SDS011;17458;48.958;8.284;2022-07-30T09:34:31;3.95;;;1.80;;
30707;SDS011;17458;48.958;8.284;2022-07-30T09:37:17;4.22;;;2.10;;
30707;SDS011;17458;48.958;8.284;2022-07-30T09:40:21;7.07;;;2.45;;
30707;SDS011;17458;48.958;8.284;2022-07-30T09:43:27;6.43;;;2.20;;
30707;SDS011;17458;48.958;8.284;2022-07-30T09:46:21;6.07;;;2.15;;
30707;SDS011;17458;48.958;8.284;2022-07-30T09:49:15;4.40;;;2.05;;
30707;SDS011;17458;48.958;8.284;2022-07-30T09:52:06;5.15;;;2.40;;
30707;SDS011;17458;48.958;8.284;2022-07-30T09:54:53;6.75;;;2.42;;
30707;SDS011;17458;48.958;8.284;2022-07-30T09:57:53;9.68;;;2.70;;
30707;SDS011;17458;48.958;8.284;2022-07-30T10:00:42;3.78;;;2.33;;
30707;SDS011;17458;48.958;8.284;2022-07-30T10:03:42;4.93;;;2.28;;
30707;SDS011;17458;48.958;8.284;2022-07-30T10:06:54;7.38;;;2.40;;
30707;SDS011;17458;48.958;8.284;2022-07-30T10:09:50;5.00;;;2.03;;
30707;SDS011;17458;48.958;8.284;2022-07-30T10:12:37;6.00;;;2.20;;
30707;SDS011;17458;48.958;8.284;2022-07-30T10:15:23;4.10;;;1.92;;
30707;SDS011;17458;48.958;8.284;2022-07-30T10:18:10;4.53;;;1.85;;
30707;SDS011;17458;48.958;8.284;2022-07-30T10:21:07;2.58;;;1.73;;
30707;SDS011;17458;48.958;8.284;2022-07-30T10:24:10;4.35;;;1.65;;
30707;SDS011;17458;48.958;8.284;2022-07-30T10:27:15;3.83;;;1.92;;
30707;SDS011;17458;48.958;8.284;2022-07-30T10:30:17;3.92;;;1.70;;
30707;SDS011;17458;48.958;8.284;2022-07-30T10:33:01;5.28;;;1.98;;
30707;SDS011;17458;48.958;8.284;2022-07-30T10:35:46;6.75;;;1.80;;
30707;SDS011;17458;48.958;8.284;2022-07-30T10:38:30;4.72;;;2.15;;
30707;SDS011;17458;48.958;8.284;2022-07-30T10:42:00;7.45;;;1.63;;
30707;SDS011;17458;48.958;8.284;2022-07-30T10:44:31;3.55;;;1.75;;
30707;SDS011;17458;48.958;8.284;2022-07-30T10:47:17;4.55;;;1.88;;
30707;SDS011;17458;48.958;8.284;2022-07-30T10:50:10;5.40;;;2.20;;
30707;SDS011;17458;48.958;8.284;2022-07-30T10:52:58;5.75;;;1.52;;
30707;SDS011;17458;48.958;8.284;2022-07-30T10:55:44;5.82;;;1.50;;
30707;SDS011;17458;48.958;8.284;2022-07-30T10:58:28;4.88;;;1.65;;
30707;SDS011;17458;48.958;8.284;2022-07-30T11:01:12;9.43;;;1.92;;
30707;SDS011;17458;48.958;8.284;2022-07-30T11:10:06;3.28;;;1.33;;
30707;SDS011;17458;48.958;8.284;2022-07-30T11:19:24;3.90;;;1.52;;
30707;SDS011;17458;48.958;8.284;2022-07-30T11:22:23;5.35;;;1.30;;
30707;SDS011;17458;48.958;8.284;2022-07-30T11:28:04;3.00;;;1.10;;
30707;SDS011;17458;48.958;8.284;2022-07-30T11:30:48;3.97;;;1.45;;
30707;SDS011;17458;48.958;8.284;2022-07-30T11:33:34;7.05;;;1.50;;
30707;SDS011;17458;48.958;8.284;2022-07-30T11:36:19;5.45;;;1.17;;
30707;SDS011;17458;48.958;8.284;2022-07-30T11:39:03;4.57;;;1.60;;
30707;SDS011;17458;48.958;8.284;2022-07-30T11:42:22;7.63;;;1.90;;
30707;SDS011;17458;48.958;8.284;2022-07-30T11:48:01;5.60;;;1.60;;
30707;SDS011;17458;48.958;8.284;2022-07-30T11:50:53;3.30;;;1.25;;
30707;SDS011;17458;48.958;8.284;2022-07-30T11:53:38;3.53;;;1.17;;
30707;SDS011;17458;48.958;8.284;2022-07-30T11:56:25;5.57;;;1.42;;
30707;SDS011;17458;48.958;8.284;2022-07-30T11:59:09;6.28;;;1.52;;
30707;SDS011;17458;48.958;8.284;2022-07-30T12:01:53;4.72;;;1.58;;
30707;SDS011;17458;48.958;8.284;2022-07-30T12:04:42;4.57;;;1.10;;
30707;SDS011;17458;48.958;8.284;2022-07-30T12:07:27;3.20;;;1.23;;
30707;SDS011;17458;48.958;8.284;2022-07-30T12:10:17;3.88;;;1.08;;
30707;SDS011;17458;48.958;8.284;2022-07-30T12:13:09;2.67;;;0.93;;
30707;SDS011;17458;48.958;8.284;2022-07-30T12:15:58;4.07;;;1.30;;
30707;SDS011;17458;48.958;8.284;2022-07-30T12:18:43;3.38;;;1.48;;
30707;SDS011;17458;48.958;8.284;2022-07-30T12:21:29;1.25;;;1.00;;
30707;SDS011;17458;48.958;8.284;2022-07-30T12:24:14;3.40;;;1.25;;
30707;SDS011;17458;48.958;8.284;2022-07-30T12:27:05;2.67;;;1.17;;
30707;SDS011;17458;48.958;8.284;2022-07-30T12:29:49;2.15;;;1.10;;
30707;SDS011;17458;48.958;8.284;2022-07-30T12:32:33;2.58;;;1.10;;
30707;SDS011;17458;48.958;8.284;2022-07-30T12:35:18;2.35;;;1.13;;
30707;SDS011;17458;48.958;8.284;2022-07-30T12:38:03;2.65;;;0.90;;
30707;SDS011;17458;48.958;8.284;2022-07-30T12:43:52;1.13;;;1.02;;
30707;SDS011;17458;48.958;8.284;2022-07-30T12:46:38;3.70;;;1.00;;
30707;SDS011;17458;48.958;8.284;2022-07-30T12:49:27;1.48;;;1.00;;
30707;SDS011;17458;48.958;8.284;2022-07-30T12:52:19;2.53;;;1.25;;
30707;SDS011;17458;48.958;8.284;2022-07-30T12:55:13;1.02;;;0.88;;
30707;SDS011;17458;48.958;8.284;2022-07-30T13:00:46;4.90;;;1.33;;
30707;SDS011;17458;48.958;8.284;2022-07-30T13:03:35;5.03;;;1.10;;
30707;SDS011;17458;48.958;8.284;2022-07-30T13:06:21;8.35;;;1.10;;
30707;SDS011;17458;48.958;8.284;2022-07-30T13:09:18;3.60;;;0.90;;
30707;SDS011;17458;48.958;8.284;2022-07-30T13:12:03;2.70;;;1.65;;
30707;SDS011;17458;48.958;8.284;2022-07-30T13:14:47;6.07;;;1.02;;
30707;SDS011;17458;48.958;8.284;2022-07-30T13:17:31;1.20;;;0.65;;
30707;SDS011;17458;48.958;8.284;2022-07-30T13:20:16;2.42;;;1.10;;
30707;SDS011;17458;48.958;8.284;2022-07-30T13:23:01;5.45;;;1.20;;
30707;SDS011;17458;48.958;8.284;2022-07-30T13:25:45;8.15;;;0.88;;
30707;SDS011;17458;48.958;8.284;2022-07-30T13:28:29;2.13;;;0.95;;
30707;SDS011;17458;48.958;8.284;2022-07-30T13:31:15;2.97;;;0.90;;
30707;SDS011;17458;48.958;8.284;2022-07-30T13:33:59;4.68;;;1.38;;
30707;SDS011;17458;48.958;8.284;2022-07-30T13:36:42;7.00;;;1.33;;
30707;SDS011;17458;48.958;8.284;2022-07-30T13:39:27;4.68;;;0.82;;
30707;SDS011;17458;48.958;8.284;2022-07-30T13:42:11;1.73;;;0.93;;
30707;SDS011;17458;48.958;8.284;2022-07-30T13:44:55;2.47;;;0.88;;
30707;SDS011;17458;48.958;8.284;2022-07-30T13:47:39;2.58;;;1.10;;
30707;SDS011;17458;48.958;8.284;2022-07-30T13:50:23;3.20;;;1.30;;
30707;SDS011;17458;48.958;8.284;2022-07-30T13:53:08;3.63;;;1.42;;
30707;SDS011;17458;48.958;8.284;2022-07-30T13:55:53;11.35;;;0.80;;
30707;SDS011;17458;48.958;8.284;2022-07-30T13:58:38;3.58;;;0.95;;
30707;SDS011;17458;48.958;8.284;2022-07-30T14:01:22;3.15;;;1.00;;
30707;SDS011;17458;48.958;8.284;2022-07-30T14:04:07;3.92;;;1.25;;
30707;SDS011;17458;48.958;8.284;2022-07-30T14:06:51;3.03;;;1.02;;
30707;SDS011;17458;48.958;8.284;2022-07-30T14:09:35;7.88;;;1.30;;
30707;SDS011;17458;48.958;8.284;2022-07-30T14:12:19;4.40;;;0.88;;
30707;SDS011;17458;48.958;8.284;2022-07-30T14:15:03;2.25;;;1.70;;
30707;SDS011;17458;48.958;8.284;2022-07-30T14:17:48;4.05;;;1.73;;
30707;SDS011;17458;48.958;8.284;2022-07-30T14:20:32;2.50;;;0.88;;
30707;SDS011;17458;48.958;8.284;2022-07-30T14:23:18;3.28;;;1.35;;
30707;SDS011;17458;48.958;8.284;2022-07-30T14:26:02;3.15;;;2.50;;
30707;SDS011;17458;48.958;8.284;2022-07-30T14:28:46;3.17;;;1.00;;
30707;SDS011;17458;48.958;8.284;2022-07-30T14:31:30;1.80;;;0.85;;
30707;SDS011;17458;48.958;8.284;2022-07-30T14:34:14;4.50;;;0.70;;
30707;SDS011;17458;48.958;8.284;2022-07-30T14:37:00;2.05;;;1.00;;
30707;SDS011;17458;48.958;8.284;2022-07-30T14:39:44;1.52;;;0.95;;
30707;SDS011;17458;48.958;8.284;2022-07-30T14:42:28;2.00;;;0.85;;
30707;SDS011;17458;48.958;8.284;2022-07-30T14:45:12;2.55;;;1.10;;
30707;SDS011;17458;48.958;8.284;2022-07-30T14:47:56;1.38;;;0.77;;
30707;SDS011;17458;48.958;8.284;2022-07-30T14:50:40;1.83;;;0.80;;
30707;SDS011;17458;48.958;8.284;2022-07-30T14:53:24;2.05;;;0.80;;
30707;SDS011;17458;48.958;8.284;2022-07-30T14:56:11;2.67;;;1.52;;
30707;SDS011;17458;48.958;8.284;2022-07-30T14:58:56;2.72;;;0.60;;
30707;SDS011;17458;48.958;8.284;2022-07-30T15:01:41;1.95;;;0.63;;
30707;SDS011;17458;48.958;8.284;2022-07-30T15:04:30;3.58;;;1.60;;
30707;SDS011;17458;48.958;8.284;2022-07-30T15:07:17;1.92;;;0.77;;
30707;SDS011;17458;48.958;8.284;2022-07-30T15:10:02;2.75;;;0.73;;
30707;SDS011;17458;48.958;8.284;2022-07-30T15:12:47;3.03;;;0.90;;
30707;SDS011;17458;48.958;8.284;2022-07-30T15:15:32;1.75;;;0.65;;
30707;SDS011;17458;48.958;8.284;2022-07-30T15:18:17;1.30;;;0.68;;
30707;SDS011;17458;48.958;8.284;2022-07-30T15:21:01;1.83;;;0.80;;
30707;SDS011;17458;48.958;8.284;2022-07-30T15:23:45;4.53;;;0.73;;
30707;SDS011;17458;48.958;8.284;2022-07-30T15:26:30;4.63;;;0.70;;
30707;SDS011;17458;48.958;8.284;2022-07-30T15:29:17;5.63;;;0.90;;
30707;SDS011;17458;48.958;8.284;2022-07-30T15:32:02;1.50;;;0.60;;
30707;SDS011;17458;48.958;8.284;2022-07-30T15:34:46;4.40;;;0.80;;
30707;SDS011;17458;48.958;8.284;2022-07-30T15:37:33;1.42;;;0.68;;
30707;SDS011;17458;48.958;8.284;2022-07-30T15:40:17;1.45;;;1.00;;
30707;SDS011;17458;48.958;8.284;2022-07-30T15:43:01;3.42;;;0.68;;
30707;SDS011;17458;48.958;8.284;2022-07-30T15:45:46;1.23;;;0.68;;
30707;SDS011;17458;48.958;8.284;2022-07-30T15:48:29;1.25;;;1.02;;
30707;SDS011;17458;48.958;8.284;2022-07-30T15:51:13;5.28;;;0.98;;
30707;SDS011;17458;48.958;8.284;2022-07-30T15:53:57;2.38;;;0.70;;
30707;SDS011;17458;48.958;8.284;2022-07-30T15:56:44;1.92;;;0.85;;
30707;SDS011;17458;48.958;8.284;2022-07-30T15:59:28;0.88;;;0.75;;
30707;SDS011;17458;48.958;8.284;2022-07-30T16:02:13;1.38;;;0.68;;
30707;SDS011;17458;48.958;8.284;2022-07-30T16:04:57;2.45;;;0.82;;
30707;SDS011;17458;48.958;8.284;2022-07-30T16:07:41;6.32;;;0.73;;
30707;SDS011;17458;48.958;8.284;2022-07-30T16:10:26;4.93;;;1.10;;
30707;SDS011;17458;48.958;8.284;2022-07-30T16:13:10;4.43;;;0.93;;
30707;SDS011;17458;48.958;8.284;2022-07-30T16:15:53;2.30;;;0.98;;
30707;SDS011;17458;48.958;8.284;2022-07-30T16:18:37;4.30;;;1.02;;
30707;SDS011;17458;48.958;8.284;2022-07-30T16:21:21;3.47;;;0.90;;
30707;SDS011;17458;48.958;8.284;2022-07-30T16:24:06;1.13;;;0.80;;
30707;SDS011;17458;48.958;8.284;2022-07-30T16:26:50;3.13;;;0.77;;
30707;SDS011;17458;48.958;8.284;2022-07-30T16:29:34;1.15;;;0.70;;
30707;SDS011;17458;48.958;8.284;2022-07-30T16:32:18;2.92;;;1.08;;
30707;SDS011;17458;48.958;8.284;2022-07-30T16:35:02;1.05;;;0.50;;
30707;SDS011;17458;48.958;8.284;2022-07-30T16:37:46;0.77;;;0.63;;
30707;SDS011;17458;48.958;8.284;2022-07-30T16:40:30;1.75;;;0.88;;
30707;SDS011;17458;48.958;8.284;2022-07-30T16:43:15;1.45;;;1.05;;
30707;SDS011;17458;48.958;8.284;2022-07-30T16:45:59;1.63;;;1.02;;
30707;SDS011;17458;48.958;8.284;2022-07-30T16:48:43;2.03;;;0.77;;
30707;SDS011;17458;48.958;8.284;2022-07-30T16:51:27;2.92;;;0.60;;
30707;SDS011;17458;48.958;8.284;2022-07-30T16:54:11;0.90;;;0.70;;
30707;SDS011;17458;48.958;8.284;2022-07-30T16:56:56;1.67;;;0.90;;
30707;SDS011;17458;48.958;8.284;2022-07-30T16:59:40;5.57;;;2.85;;
30707;SDS011;17458;48.958;8.284;2022-07-30T17:02:24;0.65;;;0.45;;
30707;SDS011;17458;48.958;8.284;2022-07-30T17:05:08;4.78;;;0.73;;
30707;SDS011;17458;48.958;8.284;2022-07-30T17:07:53;4.53;;;1.52;;
30707;SDS011;17458;48.958;8.284;2022-07-30T17:10:36;6.07;;;3.65;;
30707;SDS011;17458;48.958;8.284;2022-07-30T17:13:20;2.67;;;1.10;;
30707;SDS011;17458;48.958;8.284;2022-07-30T17:16:05;1.88;;;0.60;;
30707;SDS011;17458;48.958;8.284;2022-07-30T17:18:49;2.28;;;0.70;;
30707;SDS011;17458;48.958;8.284;2022-07-30T17:21:33;6.28;;;0.85;;
30707;SDS011;17458;48.958;8.284;2022-07-30T17:24:17;2.83;;;1.02;;
30707;SDS011;17458;48.958;8.284;2022-07-30T17:27:01;1.10;;;0.85;;
30707;SDS011;17458;48.958;8.284;2022-07-30T17:29:45;1.08;;;0.57;;